Time;durP1;ratioP1;P1;durP2;ratioP2;P2;SDS_P1;SDS_P2;PMS_P1;PMS_P2;Temp;Humidity;BMP_temperature;BMP_pressure;BME280_temperature;BME280_humidity;BME280_pressure;Samples;Min_cycle;Max_cycle;Signal;HPM_P1;HPM_P2
2023/03/03 00:01:25;;;;;;;79.90;31.50;;;;;;;-3.17;100.00;101254.37;103358;1298;60802;-84
2023/03/03 00:03:51;;;;;;;70.60;31.50;;;;;;;-3.18;100.00;101254.77;103650;1291;60406;-85
2023/03/03 00:06:17;;;;;;;72.50;33.10;;;;;;;-3.21;100.00;101253.83;103629;1288;304346;-84
2023/03/03 00:08:43;;;;;;;68.10;30.40;;;;;;;-3.24;100.00;101252.70;103617;1286;60425;-84
2023/03/03 00:11:09;;;;;;;75.70;32.20;;;;;;;-3.26;100.00;101254.83;103526;1291;60445;-84
2023/03/03 00:13:56;;;;;;;78.70;31.80;;;;;;;-3.29;100.00;101247.20;103533;1286;60390;-84
2023/03/03 00:16:38;;;;;;;75.40;33.10;;;;;;;-3.28;100.00;101242.40;102784;1295;600315;-85
2023/03/03 00:19:14;;;;;;;84.10;33.20;;;;;;;-3.32;100.00;101241.02;102909;1296;60280;-85
2023/03/03 00:21:42;;;;;;;73.00;31.90;;;;;;;-3.34;100.00;101242.33;103061;1292;60382;-85
2023/03/03 00:24:43;;;;;;;76.30;31.90;;;;;;;-3.35;100.00;101235.92;102888;1294;600412;-83
2023/03/03 00:27:34;;;;;;;76.60;30.60;;;;;;;-3.42;100.00;101234.61;102863;1294;60403;-84
2023/03/03 00:30:00;;;;;;;71.20;29.60;;;;;;;-3.44;100.00;101231.10;103041;1292;60701;-83
2023/03/03 00:32:30;;;;;;;69.80;30.30;;;;;;;-3.47;100.00;101224.95;102769;1294;60419;-83
2023/03/03 00:35:16;;;;;;;68.70;29.50;;;;;;;-3.49;100.00;101224.79;103056;1291;74771;-83
2023/03/03 00:37:42;;;;;;;72.40;28.40;;;;;;;-3.51;100.00;101220.42;103277;1288;206054;-83
2023/03/03 00:40:14;;;;;;;77.00;30.90;;;;;;;-3.53;100.00;101220.30;103348;1287;60445;-83
2023/03/03 00:42:40;;;;;;;76.30;30.00;;;;;;;-3.55;100.00;101219.48;103319;1293;61685;-84
2023/03/03 00:45:37;;;;;;;73.20;29.80;;;;;;;-3.57;100.00;101222.48;103190;1288;60315;-84
2023/03/03 00:48:20;;;;;;;70.50;28.70;;;;;;;-3.58;100.00;101221.73;103154;1291;75221;-84
2023/03/03 00:50:46;;;;;;;63.90;29.40;;;;;;;-3.60;100.00;101215.40;103234;1294;73039;-83
2023/03/03 00:53:20;;;;;;;75.80;29.40;;;;;;;-3.61;100.00;101218.10;103244;1301;60395;-83
2023/03/03 00:55:48;;;;;;;70.80;28.50;;;;;;;-3.61;100.00;101216.41;103288;1288;60665;-83
2023/03/03 00:58:14;;;;;;;67.30;28.80;;;;;;;-3.62;100.00;101210.67;103186;1292;73678;-81
2023/03/03 01:00:40;;;;;;;70.80;30.40;;;;;;;-3.63;100.00;101209.18;103339;1292;60414;-84
2023/03/03 01:03:14;;;;;;;73.80;30.80;;;;;;;-3.64;100.00;101204.38;103175;1294;60510;-84
2023/03/03 01:05:40;;;;;;;75.40;31.70;;;;;;;-3.66;100.00;101201.39;103121;1292;62187;-83
2023/03/03 01:08:06;;;;;;;75.30;28.70;;;;;;;-3.65;100.00;101200.95;103096;1293;60417;-84
2023/03/03 01:13:51;;;;;;;68.10;27.10;;;;;;;-3.65;100.00;101194.06;103157;1289;600612;-83
2023/03/03 01:16:18;;;;;;;64.70;26.30;;;;;;;-3.67;100.00;101191.77;103258;1291;60403;-83
2023/03/03 01:18:43;;;;;;;63.40;26.00;;;;;;;-3.67;100.00;101194.86;103303;1292;60409;-83
2023/03/03 01:21:10;;;;;;;73.60;29.30;;;;;;;-3.68;100.00;101197.84;103521;1292;60313;-83
2023/03/03 01:23:36;;;;;;;65.50;27.70;;;;;;;-3.68;100.00;101203.29;103485;1292;60341;-83
2023/03/03 01:26:03;;;;;;;73.20;29.10;;;;;;;-3.67;100.00;101201.49;103481;1287;60404;-83
2023/03/03 01:28:29;;;;;;;77.20;28.30;;;;;;;-3.66;100.00;101197.67;103101;1286;321222;-84
2023/03/03 01:34:13;;;;;;;71.10;29.60;;;;;;;-3.59;100.00;101194.41;103052;1294;601102;-84
2023/03/03 01:36:38;;;;;;;78.90;29.10;;;;;;;-3.59;100.00;101192.61;103322;1290;60345;-84
2023/03/03 01:39:04;;;;;;;77.90;29.60;;;;;;;-3.58;100.00;101188.82;103305;1290;60453;-85
2023/03/03 01:41:32;;;;;;;65.00;27.60;;;;;;;-3.57;100.00;101189.12;103386;1295;60393;-84
2023/03/03 01:43:59;;;;;;;72.90;28.60;;;;;;;-3.57;100.00;101189.84;103477;1295;73965;-82
2023/03/03 01:46:53;;;;;;;72.40;29.90;;;;;;;-3.59;100.00;101188.45;103297;1289;62264;-84
2023/03/03 01:49:28;;;;;;;68.80;29.10;;;;;;;-3.60;100.00;101185.23;102690;1295;60383;-84
2023/03/03 01:51:58;;;;;;;77.60;31.50;;;;;;;-3.60;100.00;101183.40;102990;1296;72906;-84
2023/03/03 01:54:40;;;;;;;88.20;33.30;;;;;;;-3.59;100.00;101185.77;103095;1298;75112;-84
2023/03/03 02:00:29;;;;;;;84.80;33.70;;;;;;;-3.58;100.00;101179.33;103056;1293;60640;-82
2023/03/03 02:02:55;;;;;;;92.40;37.10;;;;;;;-3.58;100.00;101174.61;103101;1298;61471;-84
2023/03/03 02:05:21;;;;;;;97.70;38.80;;;;;;;-3.58;100.00;101172.02;102988;1294;59890;-82
2023/03/03 02:07:47;;;;;;;82.30;34.20;;;;;;;-3.58;100.00;101171.80;103156;1295;60325;-83
2023/03/03 02:10:18;;;;;;;86.50;33.70;;;;;;;-3.58;100.00;101166.33;102962;1296;60401;-82
2023/03/03 02:16:02;;;;;;;79.20;29.30;;;;;;;-3.55;100.00;101163.29;103338;1285;600835;-83
2023/03/03 02:18:29;;;;;;;76.20;29.00;;;;;;;-3.57;100.00;101160.33;103476;1288;60409;-84
2023/03/03 02:21:06;;;;;;;68.20;27.50;;;;;;;-3.56;100.00;101160.61;103501;1290;60366;-84
2023/03/03 02:23:56;;;;;;;75.40;27.20;;;;;;;-3.57;100.00;101161.92;103432;1286;72506;-85
2023/03/03 02:29:56;;;;;;;69.30;26.90;;;;;;;-3.56;100.00;101153.31;103121;1294;600864;-82
2023/03/03 02:32:22;;;;;;;61.80;25.20;;;;;;;-3.58;100.00;101150.08;103491;1295;60349;-85
2023/03/03 02:34:50;;;;;;;70.20;26.30;;;;;;;-3.57;100.00;101147.86;106563;1290;58106;-83
2023/03/03 02:37:17;;;;;;;64.30;27.10;;;;;;;-3.54;100.00;101141.05;106245;1289;73210;-83
2023/03/03 02:39:43;;;;;;;64.90;25.50;;;;;;;-3.51;100.00;101141.24;106502;1289;74043;-84
2023/03/03 02:42:17;;;;;;;63.10;24.60;;;;;;;-3.53;100.00;101134.07;106491;1289;58318;-84
2023/03/03 02:44:42;;;;;;;64.00;25.40;;;;;;;-3.54;100.00;101133.46;106391;1286;370160;-83
2023/03/03 02:47:08;;;;;;;65.50;23.60;;;;;;;-3.54;100.00;101134.15;106395;1286;58118;-84
2023/03/03 02:49:35;;;;;;;61.50;23.90;;;;;;;-3.56;100.00;101133.13;106708;1286;58312;-84
2023/03/03 02:52:04;;;;;;;59.10;23.10;;;;;;;-3.58;100.00;101127.73;106778;1285;58183;-84
2023/03/03 02:54:30;;;;;;;58.90;25.10;;;;;;;-3.58;100.00;101126.19;106814;1286;73471;-83
2023/03/03 02:56:56;;;;;;;68.10;26.10;;;;;;;-3.57;100.00;101121.69;106800;1285;58185;-83
2023/03/03 02:59:22;;;;;;;65.10;25.70;;;;;;;-3.57;100.00;101116.16;106834;1285;57988;-83
2023/03/03 03:01:48;;;;;;;62.20;24.40;;;;;;;-3.56;100.00;101115.41;106967;1285;58071;-84
2023/03/03 03:04:20;;;;;;;64.10;24.70;;;;;;;-3.58;100.00;101114.74;106734;1286;58643;-83
2023/03/03 03:06:46;;;;;;;58.30;23.20;;;;;;;-3.58;100.00;101112.46;106833;1285;73431;-83
2023/03/03 03:09:12;;;;;;;54.10;21.10;;;;;;;-3.58;100.00;101109.36;106954;1284;58524;-83
2023/03/03 03:11:38;;;;;;;51.60;21.50;;;;;;;-3.59;100.00;101109.10;106935;1286;58063;-83
2023/03/03 03:14:05;;;;;;;54.40;21.50;;;;;;;-3.60;100.00;101104.98;106930;1285;58161;-83
2023/03/03 03:16:31;;;;;;;52.60;20.40;;;;;;;-3.60;100.00;101102.31;106915;1285;58119;-84
2023/03/03 03:18:59;;;;;;;54.20;21.30;;;;;;;-3.59;100.00;101102.52;106903;1285;58143;-83
2023/03/03 03:21:26;;;;;;;55.60;20.70;;;;;;;-3.57;100.00;101102.73;106805;1286;61878;-83
2023/03/03 03:23:51;;;;;;;51.10;21.20;;;;;;;-3.55;100.00;101098.17;106908;1286;57990;-84
2023/03/03 03:26:19;;;;;;;53.40;20.60;;;;;;;-3.52;100.00;101094.07;106809;1285;58138;-83
2023/03/03 03:28:45;;;;;;;60.30;22.40;;;;;;;-3.49;100.00;101091.73;106955;1285;74214;-83
2023/03/03 03:31:11;;;;;;;51.10;20.60;;;;;;;-3.46;100.00;101091.41;106893;1286;58119;-83
2023/03/03 03:33:36;;;;;;;51.30;21.60;;;;;;;-3.42;100.00;101086.45;106799;1286;58168;-83
2023/03/03 03:36:03;;;;;;;57.40;22.50;;;;;;;-3.40;100.00;101084.13;106836;1285;58160;-83
2023/03/03 03:38:30;;;;;;;56.10;22.20;;;;;;;-3.39;100.00;101087.85;106830;1285;58136;-83
2023/03/03 03:40:55;;;;;;;55.60;20.90;;;;;;;-3.39;100.00;101085.21;106840;1285;58056;-83
2023/03/03 03:43:21;;;;;;;59.80;21.90;;;;;;;-3.40;100.00;101086.20;106850;1286;58710;-83
2023/03/03 03:45:47;;;;;;;57.70;21.90;;;;;;;-3.40;100.00;101090.09;106802;1285;58550;-83
2023/03/03 03:48:13;;;;;;;54.70;20.70;;;;;;;-3.38;100.00;101082.74;106915;1285;73678;-83
2023/03/03 03:50:38;;;;;;;46.80;19.70;;;;;;;-3.38;100.00;101083.61;106893;1286;58122;-83
2023/03/03 03:53:05;;;;;;;53.10;20.10;;;;;;;-3.40;100.00;101084.15;106885;1285;58183;-84
2023/03/03 03:55:31;;;;;;;46.90;18.80;;;;;;;-3.42;100.00;101084.84;106859;1288;58136;-83
2023/03/03 03:57:57;;;;;;;52.60;20.10;;;;;;;-3.41;100.00;101084.94;106907;1286;58570;-83
2023/03/03 04:00:23;;;;;;;56.50;21.50;;;;;;;-3.36;100.00;101082.02;106898;1286;58114;-83
2023/03/03 04:02:49;;;;;;;61.30;21.20;;;;;;;-3.30;100.00;101078.84;106903;1285;58477;-84
2023/03/03 04:05:15;;;;;;;61.50;22.40;;;;;;;-3.25;100.00;101078.88;106904;1285;58279;-84
2023/03/03 04:07:40;;;;;;;61.30;23.10;;;;;;;-3.20;100.00;101075.71;106948;1285;58072;-84
2023/03/03 04:10:06;;;;;;;65.40;22.90;;;;;;;-3.17;100.00;101078.08;106917;1286;58046;-84
2023/03/03 04:12:37;;;;;;;66.90;22.20;;;;;;;-3.06;100.00;101080.47;106896;1286;58210;-84
2023/03/03 04:15:09;;;;;;;55.30;21.10;;;;;;;-2.95;100.00;101081.80;106863;1285;73462;-83
2023/03/03 04:17:34;;;;;;;57.50;21.10;;;;;;;-2.86;100.00;101084.86;106875;1284;61534;-83
2023/03/03 04:20:01;;;;;;;55.30;22.00;;;;;;;-2.78;100.00;101087.91;106557;1285;58170;-84
2023/03/03 04:22:27;;;;;;;61.90;21.60;;;;;;;-2.70;100.00;101086.02;106851;1285;58132;-83
2023/03/03 04:24:52;;;;;;;59.10;22.20;;;;;;;-2.62;100.00;101080.05;106811;1285;58309;-84
2023/03/03 04:27:18;;;;;;;58.40;21.00;;;;;;;-2.53;100.00;101077.56;106575;1286;58352;-83
2023/03/03 04:29:43;;;;;;;57.70;21.60;;;;;;;-2.46;100.00;101078.06;106874;1285;58286;-84
2023/03/03 04:32:09;;;;;;;66.80;23.00;;;;;;;-2.41;100.00;101075.53;106608;1285;58166;-83
2023/03/03 04:34:34;;;;;;;61.60;22.70;;;;;;;-2.34;100.00;101076.17;106906;1285;58098;-84
2023/03/03 04:37:00;;;;;;;58.70;21.90;;;;;;;-2.29;100.00;101075.87;106802;1285;58160;-83
2023/03/03 04:39:27;;;;;;;67.40;23.50;;;;;;;-2.25;100.00;101075.82;106875;1284;58199;-84
2023/03/03 04:41:53;;;;;;;70.80;25.20;;;;;;;-2.23;100.00;101075.45;106893;1285;58422;-83
2023/03/03 04:44:18;;;;;;;66.50;24.10;;;;;;;-2.22;100.00;101070.21;106761;1286;58087;-84
2023/03/03 04:46:44;;;;;;;68.40;24.60;;;;;;;-2.19;100.00;101066.75;106909;1285;58196;-84
2023/03/03 04:49:10;;;;;;;73.90;26.40;;;;;;;-2.11;100.00;101069.41;106918;1285;58204;-83
2023/03/03 04:51:35;;;;;;;64.20;24.40;;;;;;;-2.05;100.00;101069.74;106689;1286;58151;-83
2023/03/03 04:54:01;;;;;;;72.60;27.00;;;;;;;-1.93;100.00;101073.47;106966;1285;58161;-83
2023/03/03 04:56:27;;;;;;;67.10;25.10;;;;;;;-1.84;100.00;101073.01;106935;1285;58269;-83
2023/03/03 04:58:53;;;;;;;65.10;24.40;;;;;;;-1.74;100.00;101074.22;107077;1283;58066;-84
2023/03/03 05:01:19;;;;;;;55.80;20.40;;;;;;;-1.58;100.00;101076.14;107113;1283;58255;-84
2023/03/03 05:03:44;;;;;;;59.10;20.30;;;;;;;-1.35;100.00;101080.67;107116;1283;58064;-84
2023/03/03 05:06:10;;;;;;;51.10;17.20;;;;;;;-0.94;100.00;101080.00;107082;1283;74283;-84
2023/03/03 05:08:36;;;;;;;44.70;15.60;;;;;;;0.14;100.00;101079.60;107070;1283;58019;-85
2023/03/03 05:11:01;;;;;;;38.20;13.50;;;;;;;1.43;100.00;101082.37;106824;1283;58246;-85
2023/03/03 05:13:27;;;;;;;40.70;12.30;;;;;;;2.69;100.00;101088.48;107066;1283;58100;-85
2023/03/03 05:15:54;;;;;;;34.80;13.10;;;;;;;3.42;100.00;101085.20;106686;1283;58150;-85
2023/03/03 05:18:24;;;;;;;41.60;14.50;;;;;;;3.35;100.00;101084.39;106564;1286;58315;-85
2023/03/03 05:20:50;;;;;;;52.80;15.40;;;;;;;3.19;100.00;101088.95;106684;1286;72435;-85
2023/03/03 05:23:16;;;;;;;43.70;16.10;;;;;;;2.98;100.00;101094.34;106538;1286;61943;-84
2023/03/03 05:25:42;;;;;;;44.60;15.50;;;;;;;2.84;100.00;101096.50;106730;1286;58258;-84
2023/03/03 05:28:08;;;;;;;40.80;14.80;;;;;;;2.82;100.00;101094.77;106742;1286;58227;-84
2023/03/03 05:30:35;;;;;;;42.20;15.20;;;;;;;2.83;100.00;101099.14;106740;1286;58303;-84
2023/03/03 05:33:00;;;;;;;47.90;15.30;;;;;;;2.76;100.00;101092.88;106727;1286;58528;-84
2023/03/03 05:35:26;;;;;;;46.80;15.50;;;;;;;2.77;100.00;101095.83;106682;1289;58238;-84
2023/03/03 05:37:52;;;;;;;43.40;14.40;;;;;;;2.77;100.00;101093.52;106549;1286;58132;-84
2023/03/03 05:40:18;;;;;;;42.70;15.70;;;;;;;2.80;100.00;101095.89;106675;1286;74315;-84
2023/03/03 05:42:44;;;;;;;52.10;16.70;;;;;;;2.89;100.00;101094.64;106343;1286;58095;-84
2023/03/03 05:45:10;;;;;;;51.70;17.00;;;;;;;3.08;100.00;101092.07;106317;1286;58181;-84
2023/03/03 05:47:36;;;;;;;46.80;16.50;;;;;;;3.85;100.00;101089.88;106718;1286;57985;-85
2023/03/03 05:50:05;;;;;;;52.30;16.70;;;;;;;4.30;100.00;101084.08;106445;1283;58425;-85
2023/03/03 05:52:31;;;;;;;52.70;17.90;;;;;;;4.22;100.00;101085.80;106541;1286;73451;-86
2023/03/03 05:54:56;;;;;;;51.60;17.50;;;;;;;4.10;100.00;101087.30;106682;1288;58264;-85
2023/03/03 05:57:22;;;;;;;53.90;17.70;;;;;;;3.96;100.00;101093.09;106712;1286;58242;-85
2023/03/03 05:59:48;;;;;;;49.00;17.20;;;;;;;3.84;100.00;101100.95;106368;1289;58198;-85
2023/03/03 06:02:14;;;;;;;60.00;17.80;;;;;;;3.72;100.00;101106.25;106365;1289;58320;-85
2023/03/03 06:04:39;;;;;;;49.10;16.20;;;;;;;3.60;100.00;101108.69;106281;1289;58567;-85
2023/03/03 06:07:05;;;;;;;49.50;17.00;;;;;;;3.48;100.00;101103.69;106177;1290;61771;-85
2023/03/03 06:09:31;;;;;;;43.80;15.90;;;;;;;3.48;100.00;101100.01;106361;1289;58097;-84
2023/03/03 06:11:57;;;;;;;50.70;17.40;;;;;;;3.47;100.00;101100.95;106377;1289;58135;-83
2023/03/03 06:14:23;;;;;;;52.50;16.60;;;;;;;3.50;100.00;101099.35;106368;1289;58312;-84
2023/03/03 06:16:49;;;;;;;45.80;16.40;;;;;;;3.56;100.00;101096.95;106242;1289;58924;-84
2023/03/03 06:19:15;;;;;;;47.20;17.20;;;;;;;3.66;100.00;101099.16;106263;1290;58334;-84
2023/03/03 06:21:41;;;;;;;47.30;16.40;;;;;;;3.87;100.00;101098.77;106355;1289;58131;-84
2023/03/03 06:24:09;;;;;;;53.90;16.50;;;;;;;4.12;100.00;101096.17;106400;1285;58158;-84
2023/03/03 06:26:35;;;;;;;47.90;16.70;;;;;;;4.29;100.00;101099.50;106551;1286;73605;-84
2023/03/03 06:29:00;;;;;;;44.30;16.10;;;;;;;4.39;100.00;101088.83;106668;1286;58277;-84
2023/03/03 06:31:27;;;;;;;48.40;16.20;;;;;;;4.49;100.00;101092.27;106739;1286;58540;-84
2023/03/03 06:33:52;;;;;;;51.30;15.60;;;;;;;4.58;100.00;101094.23;106418;1286;58327;-84
2023/03/03 06:36:19;;;;;;;50.60;15.80;;;;;;;4.57;100.00;101095.59;106591;1286;58678;-85
2023/03/03 06:38:44;;;;;;;51.30;16.50;;;;;;;4.52;100.00;101089.46;106950;1283;58452;-85
2023/03/03 06:41:10;;;;;;;51.20;17.10;;;;;;;4.52;100.00;101086.97;106841;1283;58367;-85
2023/03/03 06:43:36;;;;;;;44.90;15.80;;;;;;;4.50;100.00;101080.15;107049;1283;74553;-85
2023/03/03 06:46:03;;;;;;;50.80;16.40;;;;;;;4.48;100.00;101081.27;107015;1283;58454;-84
2023/03/03 06:48:30;;;;;;;46.40;16.40;;;;;;;4.50;100.00;101081.79;106708;1283;58455;-85
2023/03/03 06:50:57;;;;;;;45.90;15.60;;;;;;;4.42;100.00;101087.14;106970;1283;60936;-85
2023/03/03 06:53:25;;;;;;;45.80;16.20;;;;;;;4.34;100.00;101083.78;106838;1283;58855;-86
2023/03/03 06:55:51;;;;;;;47.70;16.00;;;;;;;4.42;100.00;101078.64;107083;1283;74513;-86
2023/03/03 06:58:20;;;;;;;48.50;16.00;;;;;;;4.62;100.00;101070.20;106789;1283;59146;-85
2023/03/03 07:00:59;;;;;;;45.70;16.20;;;;;;;4.76;100.00;101068.84;107037;1283;72574;-85
2023/03/03 07:03:31;;;;;;;43.60;16.90;;;;;;;4.82;100.00;101072.65;106705;1283;60005;-87
2023/03/03 07:05:57;;;;;;;49.00;15.80;;;;;;;4.85;100.00;101069.03;106989;1283;61065;-87
2023/03/03 07:08:24;;;;;;;49.20;16.10;;;;;;;4.97;100.00;101069.77;107001;1283;58464;-87
2023/03/03 07:10:51;;;;;;;45.80;16.30;;;;;;;5.08;100.00;101068.73;107017;1283;58210;-88
2023/03/03 07:13:24;;;;;;;49.60;16.40;;;;;;;5.12;100.00;101069.51;106399;1283;73059;-85
2023/03/03 07:15:54;;;;;;;45.80;15.70;;;;;;;5.18;100.00;101071.33;107037;1283;59285;-87
2023/03/03 07:18:31;;;;;;;43.00;16.30;;;;;;;5.26;100.00;101066.36;106961;1283;60360;-87
2023/03/03 07:20:58;;;;;;;44.80;15.80;;;;;;;5.46;100.00;101064.83;107051;1283;74636;-87
2023/03/03 07:23:27;;;;;;;47.60;16.00;;;;;;;5.60;100.00;101064.48;107088;1283;74391;-87
2023/03/03 07:25:52;;;;;;;44.60;15.30;;;;;;;5.62;100.00;101064.36;107072;1283;73497;-86
2023/03/03 07:28:26;;;;;;;42.50;14.90;;;;;;;5.67;100.00;101066.09;106760;1283;58373;-86
2023/03/03 07:30:52;;;;;;;;;;;;;;;5.70;100.00;101064.18;107095;1283;59371;-87
2023/03/03 07:33:42;;;;;;;44.20;15.10;;;;;;;5.69;100.00;101068.91;107106;1283;58467;-87
2023/03/03 07:36:25;;;;;;;41.40;15.60;;;;;;;5.64;100.00;101065.75;106482;1288;73299;-87
2023/03/03 07:38:57;;;;;;;49.20;16.80;;;;;;;5.64;100.00;101065.91;106485;1288;73252;-88
2023/03/03 07:41:22;;;;;;;42.50;16.40;;;;;;;5.67;100.00;101063.05;106437;1288;61707;-87
2023/03/03 07:43:53;;;;;;;43.80;17.10;;;;;;;5.70;100.00;101057.89;106414;1289;58571;-86
2023/03/03 07:46:29;;;;;;;47.20;17.50;;;;;;;5.75;100.00;101057.69;106490;1288;75127;-87
2023/03/03 07:48:57;;;;;;;50.70;17.70;;;;;;;5.81;100.00;101057.66;106418;1288;73985;-87
2023/03/03 07:51:40;;;;;;;46.90;17.30;;;;;;;5.92;100.00;101058.45;106279;1288;74422;-88
2023/03/03 07:54:27;;;;;;;;;;;;;;;5.90;100.00;101060.36;106246;1288;62075;-89
2023/03/03 07:56:57;;;;;;;58.50;21.00;;;;;;;5.95;100.00;101056.73;106498;1288;61097;-88
2023/03/03 07:59:26;;;;;;;60.20;20.00;;;;;;;5.99;100.00;101054.48;106258;1291;73615;-89
2023/03/03 08:01:57;;;;;;;59.30;19.50;;;;;;;5.99;100.00;101051.27;106197;1292;73423;-89
2023/03/03 08:04:31;;;;;;;54.70;19.20;;;;;;;5.97;100.00;101049.13;106240;1291;71905;-86
2023/03/03 08:07:01;;;;;;;52.80;18.80;;;;;;;5.96;100.00;101049.89;106261;1291;61671;-86
2023/03/03 08:09:37;;;;;;;53.10;17.90;;;;;;;6.01;100.00;101045.56;106317;1291;60008;-86
2023/03/03 08:12:05;;;;;;;49.60;19.50;;;;;;;6.03;100.00;101051.09;106139;1292;72569;-86
2023/03/03 08:14:34;;;;;;;62.60;18.70;;;;;;;5.92;100.00;101046.91;106769;1285;73320;-86
2023/03/03 08:17:00;;;;;;;46.90;17.40;;;;;;;5.85;100.00;101046.15;106710;1285;73327;-87
2023/03/03 08:19:29;;;;;;;46.90;17.70;;;;;;;5.82;100.00;101045.83;106795;1285;58813;-87
2023/03/03 08:22:11;;;;;;;48.70;18.90;;;;;;;5.91;100.00;101041.52;106801;1285;60031;-86
2023/03/03 08:24:36;;;;;;;54.80;16.60;;;;;;;5.89;100.00;101040.92;106762;1285;72579;-86
2023/03/03 08:27:02;;;;;;;56.60;18.80;;;;;;;5.84;100.00;101039.24;106606;1285;58815;-87
2023/03/03 08:29:27;;;;;;;52.90;18.30;;;;;;;5.87;100.00;101036.58;106820;1285;58351;-87
2023/03/03 08:31:53;;;;;;;52.60;18.30;;;;;;;5.91;100.00;101036.59;107013;1283;58233;-87
2023/03/03 08:34:18;;;;;;;59.40;19.90;;;;;;;5.97;100.00;101031.27;107126;1283;58301;-86
2023/03/03 08:36:46;;;;;;;56.70;19.00;;;;;;;6.03;100.00;101024.96;107067;1283;73278;-87
2023/03/03 08:39:12;;;;;;;57.40;19.30;;;;;;;6.00;100.00;101022.64;107022;1282;72526;-86
2023/03/03 08:41:39;;;;;;;58.00;18.30;;;;;;;6.08;100.00;101022.53;107086;1283;58155;-87
2023/03/03 08:44:05;;;;;;;57.10;18.00;;;;;;;6.16;100.00;101021.46;107019;1283;60240;-88
2023/03/03 08:46:31;;;;;;;56.60;19.00;;;;;;;6.17;100.00;101015.98;107118;1283;58626;-86
2023/03/03 08:52:18;;;;;;;49.20;17.30;;;;;;;6.30;100.00;101006.95;107118;1283;71253;-86
2023/03/03 08:54:44;;;;;;;52.20;16.80;;;;;;;6.33;100.00;101007.92;107056;1283;58182;-87
2023/03/03 08:57:09;;;;;;;46.80;16.30;;;;;;;6.23;100.00;101012.23;107105;1283;58639;-87
2023/03/03 08:59:37;;;;;;;48.20;15.70;;;;;;;6.20;100.00;101009.95;106744;1282;58530;-87
2023/03/03 09:02:05;;;;;;;44.80;16.80;;;;;;;6.12;100.00;101008.67;106984;1283;58140;-87
2023/03/03 09:04:30;;;;;;;46.20;15.90;;;;;;;6.08;100.00;101006.31;106807;1283;58373;-87
2023/03/03 09:06:56;;;;;;;49.70;15.60;;;;;;;5.99;100.00;101006.27;106973;1283;58264;-87
2023/03/03 09:09:22;;;;;;;46.00;16.50;;;;;;;5.94;100.00;101003.58;106794;1283;58549;-87
2023/03/03 09:11:48;;;;;;;40.20;14.50;;;;;;;5.95;100.00;101001.44;107070;1283;58600;-86
2023/03/03 09:14:17;;;;;;;45.20;15.30;;;;;;;6.00;100.00;100998.77;107056;1283;58912;-87
2023/03/03 09:16:51;;;;;;;53.40;15.30;;;;;;;6.07;100.00;100996.85;107016;1283;58228;-87
2023/03/03 09:19:20;;;;;;;40.60;14.70;;;;;;;6.12;100.00;100993.80;107045;1283;60937;-87
2023/03/03 09:21:46;;;;;;;37.30;15.00;;;;;;;6.25;100.00;100987.42;107085;1283;59027;-87
2023/03/03 09:24:26;;;;;;;45.20;15.20;;;;;;;6.35;100.00;100983.36;107091;1283;58778;-87
2023/03/03 09:26:53;;;;;;;44.40;15.90;;;;;;;6.42;100.00;100983.25;107087;1283;72249;-87
2023/03/03 09:29:28;;;;;;;41.70;14.20;;;;;;;6.42;100.00;100981.15;106722;1286;72335;-87
2023/03/03 09:31:55;;;;;;;38.90;14.90;;;;;;;6.33;100.00;100977.55;106578;1286;61063;-86
2023/03/03 09:34:38;;;;;;;36.70;13.70;;;;;;;6.32;100.00;100974.66;106607;1286;61084;-87
2023/03/03 09:37:27;;;;;;;36.60;14.50;;;;;;;6.30;100.00;100972.55;106342;1287;74152;-87
2023/03/03 09:39:56;;;;;;;45.00;14.80;;;;;;;6.30;100.00;100969.73;106738;1285;73348;-86
2023/03/03 09:43:05;;;;;;;39.70;13.80;;;;;;;6.31;100.00;100962.24;106712;1286;73624;-85
2023/03/03 09:45:49;;;;;;;40.40;14.00;;;;;;;6.35;100.00;100959.44;106011;1294;61098;-87
2023/03/03 09:48:14;;;;;;;;;;;;;;;6.41;100.00;100953.23;106092;1293;60881;-86
2023/03/03 09:51:05;;;;;;;37.00;13.10;;;;;;;6.51;100.00;100946.41;105907;1294;58394;-86
2023/03/03 09:54:09;;;;;;;40.60;13.30;;;;;;;6.53;100.00;100938.48;105948;1293;73361;-87
2023/03/03 09:56:46;;;;;;;38.40;14.50;;;;;;;6.52;100.00;100937.49;105604;1299;72515;-88
2023/03/03 09:59:44;;;;;;;35.80;14.30;;;;;;;6.56;100.00;100938.08;105611;1299;60819;-88
2023/03/03 10:02:45;;;;;;;40.30;14.90;;;;;;;6.60;100.00;100933.81;105857;1296;60181;-89
2023/03/03 10:05:36;;;;;;;38.50;15.90;;;;;;;6.63;100.00;100928.52;105483;1303;74381;-89
2023/03/03 10:08:26;;;;;;;42.80;17.00;;;;;;;6.68;100.00;100929.89;105487;1300;74334;-89
2023/03/03 10:11:10;;;;;;;52.70;17.90;;;;;;;6.60;100.00;100927.92;105228;1300;72644;-89
2023/03/03 10:13:47;;;;;;;55.80;19.70;;;;;;;6.61;100.00;100919.81;105389;1300;60887;-89
2023/03/03 10:16:55;;;;;;;52.00;18.70;;;;;;;6.61;100.00;100920.76;105480;1302;60270;-89
2023/03/03 10:19:39;;;;;;;45.40;18.70;;;;;;;6.56;100.00;100916.36;105115;1301;75981;-87
2023/03/03 10:22:23;;;;;;;61.60;22.20;;;;;;;6.59;100.00;100911.49;105497;1302;74806;-87
2023/03/03 10:25:26;;;;;;;57.70;21.40;;;;;;;6.65;100.00;100909.98;105386;1303;71510;-87
2023/03/03 10:28:30;;;;;;;60.20;22.80;;;;;;;6.70;100.00;100903.61;105462;1302;62478;-87
2023/03/03 10:31:17;;;;;;;;;;;;;;;6.77;100.00;100902.45;104904;1307;61459;-88
2023/03/03 10:33:42;;;;;;;68.10;24.70;;;;;;;6.84;100.00;100898.93;105173;1302;74671;-87
2023/03/03 10:36:46;;;;;;;71.60;25.10;;;;;;;6.90;100.00;100896.75;105355;1302;58634;-87
2023/03/03 10:39:47;;;;;;;68.30;26.70;;;;;;;6.95;100.00;100892.27;105391;1302;73429;-86
2023/03/03 10:42:37;;;;;;;74.70;28.30;;;;;;;7.03;100.00;100882.66;105850;1294;60977;-87
2023/03/03 10:45:44;;;;;;;82.90;29.70;;;;;;;7.15;100.00;100876.05;105911;1294;60125;-88
2023/03/03 10:48:15;;;;;;;135.00;45.90;;;;;;;7.29;100.00;100867.92;105463;1301;73788;-89
2023/03/03 10:51:20;;;;;;;76.10;29.30;;;;;;;7.33;100.00;100864.85;105589;1297;74480;-88
2023/03/03 10:54:30;;;;;;;140.40;50.70;;;;;;;7.30;100.00;100869.09;105476;1297;73109;-89
2023/03/03 10:57:13;;;;;;;89.00;31.20;;;;;;;7.30;100.00;100866.29;105222;1305;60020;-89
2023/03/03 11:00:06;;;;;;;86.00;30.70;;;;;;;7.30;100.00;100864.63;105049;1305;60443;-88
2023/03/03 11:02:47;;;;;;;81.80;28.20;;;;;;;7.27;100.00;100864.77;105206;1305;74088;-89
2023/03/03 11:05:34;;;;;;;79.20;28.50;;;;;;;7.22;100.00;100856.49;105227;1305;74251;-88
2023/03/03 11:08:11;;;;;;;87.10;28.20;;;;;;;7.25;100.00;100852.52;105392;1296;72600;-90
2023/03/03 11:10:55;;;;;;;74.90;27.30;;;;;;;7.34;100.00;100847.77;105750;1297;61033;-89
2023/03/03 11:13:35;;;;;;;60.60;21.60;;;;;;;7.41;100.00;100842.80;105777;1297;61071;-89
2023/03/03 11:16:08;;;;;;;62.00;21.70;;;;;;;7.49;100.00;100837.92;105773;1297;73821;-87
2023/03/03 11:18:48;;;;;;;61.60;19.90;;;;;;;7.58;100.00;100829.04;105766;1297;73217;-87
2023/03/03 11:21:44;;;;;;;54.80;19.90;;;;;;;7.63;99.84;100828.50;105767;1297;71597;-89
2023/03/03 11:24:32;;;;;;;60.70;20.80;;;;;;;7.61;99.44;100827.15;106015;1291;61084;-89
2023/03/03 11:27:15;;;;;;;47.10;18.80;;;;;;;7.62;99.44;100819.95;106150;1291;58992;-90
2023/03/03 11:29:49;;;;;;;48.00;18.40;;;;;;;7.72;100.00;100818.08;106113;1291;74571;-84
2023/03/03 11:32:41;;;;;;;51.80;18.30;;;;;;;7.84;100.00;100819.45;107105;1282;74346;-86
2023/03/03 11:35:13;;;;;;;48.00;18.30;;;;;;;7.88;98.33;100816.38;107105;1282;72492;-86
2023/03/03 11:37:53;;;;;;;46.00;17.60;;;;;;;7.85;99.57;100816.95;107085;1282;61460;-85
2023/03/03 11:40:24;;;;;;;46.60;15.60;;;;;;;7.91;99.86;100814.00;107136;1282;60719;-85